This is the latest recevied weather packets stored in our database for station/object K7KAR-2. If no packets are shown the sender has not sent any weather packets the latest 10 day(s).
| Time | Temp. | Humidity | Pressure | Rain* | Wind** | Luminosity | Snow |
|---|---|---|---|---|---|---|---|
| 1777776239 | 13.89° C | 27% | 1015.8 hPa | 0 mm | - | 0 W/m² | - |
| 1777775936 | 13.89° C | 27% | 1015.7 hPa | 0 mm | - | 0 W/m² | - |
| 1777775633 | 15° C | 25% | 1015.7 hPa | 0 mm | - | 0 W/m² | - |
| 1777775329 | 15° C | 22% | 1015.6 hPa | 0 mm | - | 0 W/m² | - |
| 1777775024 | 15.56° C | 21% | 1015.5 hPa | 0 mm | - | 1 W/m² | - |
| 1777774721 | 15.56° C | 19% | 1015.3 hPa | 0 mm | - | 3 W/m² | - |
| 1777774417 | 16.11° C | 19% | 1015.4 hPa | 0 mm | - | 5 W/m² | - |
| 1777774114 | 15.56° C | 19% | 1015.5 hPa | 0 mm | - | 9 W/m² | - |
| 1777773813 | 16.11° C | 19% | 1015.6 hPa | 0 mm | - | 12 W/m² | - |
| 1777773509 | 16.11° C | 18% | 1015.4 hPa | 0 mm | - | 16 W/m² | - |
| 1777773206 | 16.11° C | 19% | 1015.4 hPa | 0 mm | - | 21 W/m² | - |
| 1777772901 | 16.67° C | 18% | 1015.4 hPa | 0 mm | - | 27 W/m² | - |
| 1777772600 | 16.67° C | 17% | 1015.1 hPa | 0 mm | - | 33 W/m² | - |
| 1777772296 | 16.67° C | 18% | 1015.4 hPa | 0 mm | - | 38 W/m² | - |
| 1777771994 | 16.67° C | 18% | 1015.4 hPa | 0 mm | - | 41 W/m² | - |
| 1777771691 | 16.67° C | 18% | 1015.1 hPa | 0 mm | - | 46 W/m² | - |
| 1777771388 | 17.22° C | 16% | 1015.3 hPa | 0 mm | - | 50 W/m² | - |
| 1777771085 | 17.22° C | 16% | 1015.4 hPa | 0 mm | - | 55 W/m² | - |
| 1777770782 | 17.22° C | 16% | 1015.3 hPa | 0 mm | - | 60 W/m² | - |
| 1777770478 | 17.22° C | 18% | 1015.4 hPa | 0 mm | - | 67 W/m² | - |
| 1777770176 | 17.22° C | 17% | 1015.5 hPa | 0 mm | - | 72 W/m² | - |
| 1777769872 | 17.22° C | 17% | 1015.4 hPa | 0 mm | - | 77 W/m² | - |
| 1777769570 | 17.22° C | 15% | 1015.6 hPa | 0 mm | - | 80 W/m² | - |
| 1777769265 | 17.78° C | 15% | 1015.4 hPa | 0 mm | - | 83 W/m² | - |
| 1777768964 | 17.78° C | 16% | 1015.3 hPa | 0 mm | - | 91 W/m² | - |
* Rain latest hour (hover to see other rain measurements)
** Current wind speed in m/s (hover to see current wind gust speed)